Time;durP1;ratioP1;P1;durP2;ratioP2;P2;SDS_P1;SDS_P2;PMS_P1;PMS_P2;Temp;Humidity;BMP_temperature;BMP_pressure;BME280_temperature;BME280_humidity;BME280_pressure;Samples;Min_cycle;Max_cycle;Signal;HPM_P1;HPM_P2
2021/12/12 00:01:44;;;;;;;11.90;8.10;;;4.50;99.90;;;;;;5046414;28;21298;-66
2021/12/12 00:04:15;;;;;;;14.93;7.43;;;4.40;99.90;;;;;;5063217;28;20447;-66
2021/12/12 00:06:45;;;;;;;13.40;7.70;;;4.40;99.90;;;;;;5052097;28;20488;-65
2021/12/12 00:09:23;;;;;;;13.07;7.50;;;4.40;99.90;;;;;;5065641;28;20450;-65
2021/12/12 00:11:50;;;;;;;12.03;8.17;;;4.50;99.90;;;;;;5066449;28;20463;-66
2021/12/12 00:14:21;;;;;;;9.67;7.00;;;4.50;99.90;;;;;;5046224;28;20452;-66
2021/12/12 00:16:49;;;;;;;11.40;7.50;;;4.50;99.90;;;;;;5045965;28;20441;-66
2021/12/12 00:19:18;;;;;;;10.27;7.17;;;4.50;99.90;;;;;;5046136;28;20444;-67
2021/12/12 00:21:48;;;;;;;10.27;7.60;;;4.60;99.90;;;;;;5045861;28;20498;-64
2021/12/12 00:24:16;;;;;;;11.83;6.47;;;4.60;99.90;;;;;;5045941;28;20483;-68
2021/12/12 00:26:45;;;;;;;11.33;6.33;;;4.60;99.90;;;;;;5045818;28;20538;-65
2021/12/12 00:29:14;;;;;;;7.77;5.37;;;4.50;99.90;;;;;;5046018;28;20930;-65
2021/12/12 00:31:41;;;;;;;10.63;5.90;;;4.50;99.90;;;;;;5046277;28;21020;-65
2021/12/12 00:34:08;;;;;;;7.73;5.77;;;4.40;99.90;;;;;;5053480;28;20470;-65
2021/12/12 00:36:40;;;;;;;9.63;6.20;;;4.40;99.90;;;;;;5057137;28;20456;-66
2021/12/12 00:39:10;;;;;;;9.73;5.40;;;4.40;99.90;;;;;;5045529;28;20965;-65
2021/12/12 00:41:43;;;;;;;7.40;6.37;;;4.40;99.90;;;;;;5045731;28;20456;-66
2021/12/12 00:44:13;;;;;;;11.00;6.27;;;4.50;99.90;;;;;;5045560;28;20488;-65
2021/12/12 00:46:40;;;;;;;10.07;6.33;;;4.40;99.90;;;;;;5045876;28;20808;-65
2021/12/12 00:49:08;;;;;;;8.20;6.73;;;4.40;99.90;;;;;;5045483;28;20454;-66
2021/12/12 00:51:40;;;;;;;7.83;5.80;;;4.40;99.90;;;;;;5046090;28;20474;-66
2021/12/12 00:54:08;;;;;;;7.33;4.73;;;4.50;99.90;;;;;;5045477;28;20442;-65
2021/12/12 00:56:35;;;;;;;11.30;6.20;;;4.40;99.90;;;;;;5048616;28;20945;-65
2021/12/12 00:59:04;;;;;;;11.33;5.23;;;4.40;99.90;;;;;;5065533;28;20917;-65
2021/12/12 01:01:35;;;;;;;6.57;5.00;;;4.40;99.90;;;;;;5069321;28;20488;-66
2021/12/12 01:04:07;;;;;;;7.93;6.50;;;4.50;99.90;;;;;;5069246;28;21019;-65
2021/12/12 01:06:34;;;;;;;7.80;5.77;;;4.50;99.90;;;;;;5054069;28;20829;-65
2021/12/12 01:09:06;;;;;;;6.57;5.10;;;4.50;99.90;;;;;;5052035;28;20546;-66
2021/12/12 01:11:35;;;;;;;9.30;6.30;;;4.50;99.90;;;;;;5049775;28;20481;-66
2021/12/12 01:14:07;;;;;;;8.53;5.70;;;4.60;99.90;;;;;;5049354;28;20925;-66
2021/12/12 01:16:37;;;;;;;8.23;6.37;;;4.50;99.90;;;;;;5049403;28;20822;-65
2021/12/12 01:19:06;;;;;;;7.13;5.43;;;4.50;99.90;;;;;;5049309;28;20449;-64
2021/12/12 01:21:36;;;;;;;9.03;5.43;;;4.50;99.90;;;;;;5049714;28;20483;-64
2021/12/12 01:24:08;;;;;;;5.93;4.77;;;4.50;99.90;;;;;;5049468;28;20513;-64
2021/12/12 01:26:36;;;;;;;7.00;5.00;;;4.50;99.90;;;;;;5063236;28;20465;-65
2021/12/12 01:29:05;;;;;;;9.70;5.33;;;4.50;99.90;;;;;;5062573;28;20462;-67
2021/12/12 01:31:36;;;;;;;7.10;5.10;;;4.50;99.90;;;;;;5062594;28;20546;-65
2021/12/12 01:34:10;;;;;;;5.57;4.37;;;4.50;99.90;;;;;;5063121;28;20447;-66
2021/12/12 01:36:49;;;;;;;7.43;5.20;;;4.50;99.90;;;;;;5062933;28;20448;-66
2021/12/12 01:39:23;;;;;;;6.77;4.27;;;4.50;99.90;;;;;;5048898;28;20477;-66
2021/12/12 01:41:56;;;;;;;9.90;4.77;;;4.50;99.90;;;;;;5049222;28;20498;-66
2021/12/12 01:44:27;;;;;;;5.60;4.67;;;4.50;99.90;;;;;;5067428;28;20493;-66
2021/12/12 01:47:06;;;;;;;7.30;4.37;;;4.50;99.90;;;;;;5062343;28;20490;-66
2021/12/12 01:49:35;;;;;;;9.50;4.70;;;4.50;99.90;;;;;;5069187;28;21257;-65
2021/12/12 01:52:04;;;;;;;6.90;4.03;;;4.50;99.90;;;;;;5064049;28;20947;-66
2021/12/12 01:54:43;;;;;;;7.40;4.30;;;4.50;99.90;;;;;;5058364;28;20457;-66
2021/12/12 01:57:12;;;;;;;10.03;5.00;;;4.50;99.90;;;;;;5048330;28;20546;-65
2021/12/12 01:59:41;;;;;;;5.10;3.37;;;4.50;99.90;;;;;;5057963;28;20450;-66
2021/12/12 02:02:12;;;;;;;8.63;3.93;;;4.50;99.90;;;;;;5067944;28;20474;-66
2021/12/12 02:04:42;;;;;;;7.00;4.17;;;4.50;99.90;;;;;;5068711;28;20494;-65
2021/12/12 02:07:11;;;;;;;7.60;3.67;;;4.50;99.90;;;;;;5069483;28;20457;-66
2021/12/12 02:09:39;;;;;;;6.43;3.73;;;4.50;99.90;;;;;;5070626;28;20457;-65
2021/12/12 02:12:08;;;;;;;5.70;4.10;;;4.40;99.90;;;;;;5069025;28;20473;-65
2021/12/12 02:14:38;;;;;;;6.07;3.97;;;4.40;99.90;;;;;;5070295;28;20443;-63
2021/12/12 02:17:11;;;;;;;5.00;2.80;;;4.40;99.90;;;;;;5069831;28;20453;-64
2021/12/12 02:19:46;;;;;;;7.60;2.93;;;4.40;99.90;;;;;;5070210;28;20451;-64
2021/12/12 02:22:34;;;;;;;4.97;3.47;;;4.40;99.90;;;;;;5069814;28;20555;-65
2021/12/12 02:36:05;;;;;;;4.70;2.87;;;4.40;99.90;;;;;;5069631;28;20417;-65
2021/12/12 02:38:34;;;;;;;4.97;3.00;;;4.40;99.90;;;;;;5069454;28;20873;-65
2021/12/12 02:41:06;;;;;;;6.90;3.53;;;4.40;99.90;;;;;;5069598;28;20492;-64
2021/12/12 02:43:37;;;;;;;5.37;3.10;;;4.30;99.90;;;;;;5069720;28;20481;-65
2021/12/12 02:46:05;;;;;;;7.50;3.30;;;4.30;99.90;;;;;;5069309;28;20456;-65
2021/12/12 02:48:35;;;;;;;5.43;3.80;;;4.30;99.90;;;;;;5069305;28;20445;-64
2021/12/12 02:51:07;;;;;;;10.43;3.93;;;4.30;99.90;;;;;;5069153;28;20476;-65
2021/12/12 02:53:39;;;;;;;5.73;3.17;;;4.20;99.90;;;;;;5069694;28;20449;-64
2021/12/12 02:56:10;;;;;;;5.67;3.60;;;4.20;99.90;;;;;;5069392;28;21065;-64
2021/12/12 02:58:38;;;;;;;6.30;3.37;;;4.20;99.90;;;;;;5069047;28;20471;-65
2021/12/12 03:01:10;;;;;;;6.90;3.93;;;4.20;99.90;;;;;;5069102;28;20480;-65
2021/12/12 03:03:38;;;;;;;5.73;3.50;;;4.20;99.90;;;;;;5069357;28;20530;-65
2021/12/12 03:06:07;;;;;;;4.80;3.23;;;4.20;99.90;;;;;;5069333;28;20462;-64
2021/12/12 03:08:38;;;;;;;4.87;3.50;;;4.20;99.90;;;;;;5069259;28;20442;-65
2021/12/12 03:11:05;;;;;;;8.07;4.00;;;4.20;99.90;;;;;;5069341;28;20466;-66
2021/12/12 03:13:33;;;;;;;5.27;3.60;;;4.20;99.90;;;;;;5068873;28;20792;-64
2021/12/12 03:16:01;;;;;;;4.70;3.23;;;4.20;99.90;;;;;;5069001;28;20456;-65
2021/12/12 03:18:30;;;;;;;6.27;3.63;;;4.20;99.90;;;;;;5069030;28;20445;-66
2021/12/12 03:21:00;;;;;;;6.30;4.10;;;4.20;99.90;;;;;;5069348;28;20470;-64
2021/12/12 03:23:29;;;;;;;6.30;3.73;;;4.10;99.90;;;;;;5068752;28;20583;-64
2021/12/12 03:26:03;;;;;;;6.67;4.30;;;4.10;99.90;;;;;;5069183;28;20462;-64
2021/12/12 03:28:33;;;;;;;5.33;3.67;;;4.10;99.90;;;;;;5068868;28;21383;-64
2021/12/12 03:31:03;;;;;;;4.90;2.90;;;4.10;99.90;;;;;;5069232;28;20470;-64
2021/12/12 03:33:32;;;;;;;4.67;3.20;;;4.10;99.90;;;;;;5068844;28;20548;-65
2021/12/12 03:36:01;;;;;;;5.30;3.40;;;4.10;99.90;;;;;;5068696;28;20442;-64
2021/12/12 03:38:30;;;;;;;9.07;4.00;;;4.00;99.90;;;;;;5068263;28;20449;-64
2021/12/12 03:41:04;;;;;;;3.67;2.67;;;4.10;99.90;;;;;;5068876;28;20467;-64
2021/12/12 03:43:31;;;;;;;4.33;2.83;;;4.10;99.90;;;;;;5068721;28;20481;-63
2021/12/12 03:45:58;;;;;;;4.43;3.33;;;4.10;99.90;;;;;;5068418;28;20481;-63
2021/12/12 03:48:29;;;;;;;5.07;3.00;;;4.00;99.90;;;;;;5068278;28;20442;-64
2021/12/12 03:50:59;;;;;;;5.63;3.37;;;3.90;99.90;;;;;;5068307;28;20469;-64
2021/12/12 03:53:28;;;;;;;4.50;3.60;;;3.80;99.90;;;;;;5068284;28;20684;-64
2021/12/12 03:55:56;;;;;;;4.23;2.70;;;3.70;99.90;;;;;;5068180;28;21103;-64
2021/12/12 03:58:25;;;;;;;10.70;4.73;;;3.60;99.90;;;;;;5068009;28;20452;-65
2021/12/12 04:00:56;;;;;;;5.73;3.17;;;3.60;99.90;;;;;;5068001;28;20475;-59
2021/12/12 04:03:23;;;;;;;4.57;3.30;;;3.50;99.90;;;;;;5068160;28;20473;-65
2021/12/12 04:05:52;;;;;;;7.57;3.70;;;3.30;99.90;;;;;;5067792;28;20457;-64
2021/12/12 04:08:24;;;;;;;7.33;4.17;;;3.20;99.90;;;;;;5068008;28;20447;-65
2021/12/12 04:10:51;;;;;;;4.93;3.20;;;3.00;99.90;;;;;;5067942;28;20477;-64
2021/12/12 04:13:18;;;;;;;6.13;3.97;;;2.90;99.90;;;;;;5067959;28;20447;-64
2021/12/12 04:15:50;;;;;;;6.03;3.47;;;2.80;99.90;;;;;;5069000;28;20453;-65
2021/12/12 04:18:21;;;;;;;7.13;3.70;;;2.60;99.90;;;;;;5067560;28;20445;-65
2021/12/12 04:20:48;;;;;;;6.30;4.43;;;2.50;99.90;;;;;;5067885;28;20997;-65
2021/12/12 04:23:16;;;;;;;6.50;3.90;;;2.30;99.90;;;;;;5067559;28;20461;-64
2021/12/12 04:25:43;;;;;;;6.73;3.97;;;2.20;99.90;;;;;;5067926;28;20457;-64
2021/12/12 04:28:10;;;;;;;8.33;4.93;;;2.10;99.90;;;;;;5067238;28;20464;-64
2021/12/12 04:30:38;;;;;;;6.23;4.10;;;2.10;99.90;;;;;;5067674;28;21037;-65
2021/12/12 04:33:06;;;;;;;7.20;4.40;;;2.00;99.90;;;;;;5067349;28;20454;-65
2021/12/12 04:35:33;;;;;;;9.30;6.03;;;2.00;99.90;;;;;;5067442;28;20446;-64
2021/12/12 04:38:02;;;;;;;8.40;3.83;;;2.00;99.90;;;;;;5067443;28;20465;-64
2021/12/12 04:40:31;;;;;;;7.60;4.17;;;2.00;99.90;;;;;;5067621;28;20468;-64
2021/12/12 04:42:58;;;;;;;6.60;4.23;;;1.90;99.90;;;;;;5067675;28;20449;-64
2021/12/12 04:45:41;;;;;;;5.50;3.90;;;1.90;99.90;;;;;;5067589;28;20573;-65
2021/12/12 04:51:08;;;;;;;6.63;4.50;;;1.90;99.90;;;;;;5067518;28;20443;-64
2021/12/12 04:53:43;;;;;;;6.40;4.50;;;1.90;99.90;;;;;;5067400;28;20979;-64
2021/12/12 04:56:16;;;;;;;7.43;4.70;;;1.90;99.90;;;;;;5067780;28;20694;-64
2021/12/12 04:58:49;;;;;;;6.20;4.53;;;1.90;99.90;;;;;;5067424;28;20841;-65
2021/12/12 05:01:19;;;;;;;5.17;4.03;;;2.00;99.90;;;;;;5067318;28;20473;-64
2021/12/12 05:03:56;;;;;;;8.10;4.27;;;2.20;99.90;;;;;;5067661;28;20474;-64
2021/12/12 05:06:27;;;;;;;5.60;4.20;;;2.30;99.90;;;;;;5066891;28;20456;-65
2021/12/12 05:09:00;;;;;;;8.23;4.37;;;2.20;99.90;;;;;;5067517;28;20441;-64
2021/12/12 05:11:32;;;;;;;6.67;4.10;;;2.30;99.90;;;;;;5067094;28;20474;-64
2021/12/12 05:14:05;;;;;;;5.80;4.80;;;2.20;99.90;;;;;;5067424;28;20444;-64
2021/12/12 05:16:37;;;;;;;6.60;4.17;;;2.10;99.90;;;;;;5066715;28;20454;-64
2021/12/12 05:19:12;;;;;;;6.37;4.10;;;2.10;99.90;;;;;;5067558;28;20475;-63
2021/12/12 05:21:44;;;;;;;5.47;3.60;;;2.10;99.90;;;;;;5067378;28;20466;-65
2021/12/12 05:24:12;;;;;;;8.53;4.67;;;2.10;99.90;;;;;;5069601;28;20497;-65
2021/12/12 05:26:44;;;;;;;7.77;4.23;;;2.10;99.90;;;;;;5068706;28;20825;-65
2021/12/12 05:29:15;;;;;;;7.23;4.17;;;2.10;99.90;;;;;;5069257;28;20457;-63
2021/12/12 05:31:46;;;;;;;7.07;5.60;;;2.10;99.90;;;;;;5068864;28;20456;-64
2021/12/12 05:34:16;;;;;;;6.53;4.60;;;2.10;99.90;;;;;;5069324;28;20456;-64
2021/12/12 05:36:44;;;;;;;6.77;4.90;;;2.00;99.90;;;;;;5067146;28;20453;-64
2021/12/12 05:39:12;;;;;;;8.17;5.00;;;2.10;99.90;;;;;;5067271;28;20461;-65
2021/12/12 05:41:39;;;;;;;6.77;5.20;;;2.00;99.90;;;;;;5067029;28;20471;-64
2021/12/12 05:44:07;;;;;;;7.03;4.83;;;1.90;99.90;;;;;;5066919;28;20531;-64
2021/12/12 05:46:34;;;;;;;6.13;4.73;;;1.90;99.90;;;;;;5068864;28;20461;-64
2021/12/12 05:49:04;;;;;;;12.00;4.80;;;1.80;99.90;;;;;;5070718;28;21310;-64
2021/12/12 05:51:34;;;;;;;7.50;5.17;;;1.70;99.90;;;;;;5070739;28;20512;-65
2021/12/12 05:54:01;;;;;;;6.87;5.47;;;1.60;99.90;;;;;;5070492;28;20992;-63
2021/12/12 05:56:31;;;;;;;7.47;5.23;;;1.50;99.90;;;;;;5070606;28;20436;-65
2021/12/12 05:58:59;;;;;;;6.07;5.00;;;1.50;99.90;;;;;;5070565;28;20435;-63
2021/12/12 06:01:29;;;;;;;9.40;5.40;;;1.50;99.90;;;;;;5070642;28;20466;-64
2021/12/12 06:03:56;;;;;;;8.60;5.03;;;1.60;99.90;;;;;;5070726;28;20444;-65
2021/12/12 06:06:27;;;;;;;9.00;5.23;;;1.50;99.90;;;;;;5070706;28;20447;-64
2021/12/12 06:08:58;;;;;;;6.90;5.30;;;1.50;99.90;;;;;;5071232;28;20529;-64
2021/12/12 06:11:28;;;;;;;8.60;5.53;;;1.40;99.90;;;;;;5070740;28;20471;-64
2021/12/12 06:13:56;;;;;;;8.73;5.03;;;1.40;99.90;;;;;;5070598;28;20455;-65
2021/12/12 06:16:24;;;;;;;7.50;5.40;;;1.40;99.90;;;;;;5069834;28;20447;-64
2021/12/12 06:18:57;;;;;;;8.67;5.80;;;1.40;99.90;;;;;;5070472;28;21441;-64
2021/12/12 06:21:24;;;;;;;7.87;5.30;;;1.50;99.90;;;;;;5070246;28;20474;-64
2021/12/12 06:23:52;;;;;;;7.67;6.33;;;1.60;99.90;;;;;;5070779;28;21121;-64
2021/12/12 06:26:22;;;;;;;6.27;4.90;;;1.70;99.90;;;;;;5069796;28;20447;-66
2021/12/12 06:28:50;;;;;;;6.50;4.67;;;1.80;99.90;;;;;;5070065;28;20808;-65
2021/12/12 06:31:17;;;;;;;7.60;4.53;;;1.80;99.90;;;;;;5070033;28;20468;-66
2021/12/12 06:33:44;;;;;;;6.03;4.50;;;1.90;99.90;;;;;;5070190;28;20448;-64
2021/12/12 06:36:13;;;;;;;6.27;4.97;;;1.80;99.90;;;;;;5070060;28;20454;-65
2021/12/12 06:38:44;;;;;;;9.03;5.30;;;1.80;99.90;;;;;;5070235;28;20452;-64
2021/12/12 06:41:12;;;;;;;8.23;4.67;;;1.80;99.90;;;;;;5069924;28;21338;-65
2021/12/12 06:43:42;;;;;;;6.67;5.20;;;1.80;99.90;;;;;;5069890;28;20440;-64
2021/12/12 06:46:10;;;;;;;7.03;5.10;;;1.80;99.90;;;;;;5069808;28;20483;-64
2021/12/12 06:48:38;;;;;;;6.57;4.87;;;1.70;99.90;;;;;;5069522;28;20987;-64
2021/12/12 06:51:05;;;;;;;6.80;5.10;;;1.80;99.90;;;;;;5070039;28;20469;-64
2021/12/12 06:53:35;;;;;;;6.13;4.13;;;1.80;99.90;;;;;;5069584;28;20953;-65
2021/12/12 06:56:03;;;;;;;7.13;4.60;;;1.70;99.90;;;;;;5069789;28;20441;-65
2021/12/12 06:58:31;;;;;;;7.43;4.97;;;1.60;99.90;;;;;;5068350;28;20985;-65
2021/12/12 07:01:04;;;;;;;6.70;4.83;;;1.60;99.90;;;;;;5069410;28;20477;-64
2021/12/12 07:03:32;;;;;;;7.37;5.47;;;1.60;99.90;;;;;;5069705;28;21556;-64
2021/12/12 07:06:00;;;;;;;7.87;5.47;;;1.60;99.90;;;;;;5069663;28;20918;-65
2021/12/12 07:08:27;;;;;;;7.37;5.90;;;1.60;99.90;;;;;;5068760;28;20482;-65
2021/12/12 07:10:54;;;;;;;6.60;5.03;;;1.60;99.90;;;;;;5069101;28;20466;-66
2021/12/12 07:13:23;;;;;;;8.67;5.47;;;1.60;99.90;;;;;;5069317;28;20449;-65
2021/12/12 07:15:53;;;;;;;7.83;5.40;;;1.60;99.90;;;;;;5069016;28;20446;-64
2021/12/12 07:18:24;;;;;;;12.03;6.27;;;1.60;99.90;;;;;;5068982;28;20447;-64
2021/12/12 07:20:53;;;;;;;8.30;6.43;;;1.60;99.90;;;;;;5069168;28;20463;-64
2021/12/12 07:23:21;;;;;;;9.00;5.50;;;1.60;99.90;;;;;;5068796;28;20459;-64
2021/12/12 07:25:48;;;;;;;8.67;6.47;;;1.60;99.90;;;;;;5068268;28;20524;-64
2021/12/12 07:28:16;;;;;;;9.90;6.43;;;1.60;99.90;;;;;;5068517;28;20448;-64
2021/12/12 07:30:44;;;;;;;9.13;6.23;;;1.60;99.90;;;;;;5068492;28;20467;-64
2021/12/12 07:33:11;;;;;;;8.37;6.10;;;1.60;99.90;;;;;;5068627;28;20472;-64
2021/12/12 07:35:43;;;;;;;9.80;6.67;;;1.60;99.90;;;;;;5068378;28;20570;-63
2021/12/12 07:38:12;;;;;;;7.00;5.70;;;1.60;99.90;;;;;;5068077;28;20444;-64
2021/12/12 07:40:39;;;;;;;10.50;6.30;;;1.60;99.90;;;;;;5068376;28;20489;-63
2021/12/12 07:43:07;;;;;;;7.17;6.37;;;1.70;99.90;;;;;;5068609;28;21114;-64
2021/12/12 07:45:35;;;;;;;7.40;6.13;;;1.80;99.90;;;;;;5068234;28;20482;-64
2021/12/12 07:48:07;;;;;;;8.20;6.20;;;1.90;99.90;;;;;;5068215;28;20473;-64
2021/12/12 07:50:34;;;;;;;9.80;6.50;;;2.00;99.90;;;;;;5068130;28;20456;-64
2021/12/12 07:53:02;;;;;;;8.90;5.87;;;2.00;99.90;;;;;;5069168;28;20444;-64
2021/12/12 07:55:29;;;;;;;9.70;6.70;;;2.10;99.90;;;;;;5068230;28;20434;-66
2021/12/12 07:57:56;;;;;;;6.70;5.60;;;2.20;99.90;;;;;;5068007;28;21077;-64
2021/12/12 08:00:25;;;;;;;9.27;6.50;;;2.30;99.90;;;;;;5068145;28;20457;-65
2021/12/12 08:02:54;;;;;;;8.23;5.40;;;2.40;99.90;;;;;;5067986;28;20452;-64
2021/12/12 08:05:27;;;;;;;8.37;6.17;;;2.60;99.90;;;;;;5067880;28;20475;-65
2021/12/12 08:07:54;;;;;;;7.53;5.70;;;2.70;99.90;;;;;;5067781;28;20871;-65
2021/12/12 08:10:23;;;;;;;5.83;4.83;;;2.90;99.90;;;;;;5067853;28;21335;-64
2021/12/12 08:12:50;;;;;;;7.60;5.40;;;3.10;99.90;;;;;;5067703;28;20442;-65
2021/12/12 08:15:18;;;;;;;7.50;5.70;;;3.20;99.90;;;;;;5067975;28;20990;-64
2021/12/12 08:17:46;;;;;;;8.23;5.33;;;3.40;99.90;;;;;;5067151;28;20441;-65
2021/12/12 08:20:14;;;;;;;7.20;4.77;;;3.60;99.90;;;;;;5067835;28;20444;-65
2021/12/12 08:22:42;;;;;;;10.40;5.67;;;3.70;99.90;;;;;;5067426;28;20463;-64
2021/12/12 08:25:12;;;;;;;7.97;5.70;;;3.90;99.90;;;;;;5067808;28;20482;-64
2021/12/12 08:27:41;;;;;;;6.40;4.87;;;4.10;99.90;;;;;;5067258;28;20449;-64
2021/12/12 08:30:09;;;;;;;5.87;4.43;;;4.30;99.90;;;;;;5067596;28;20454;-64
2021/12/12 08:32:37;;;;;;;5.60;4.70;;;4.40;99.90;;;;;;5067616;28;20447;-65
2021/12/12 08:35:06;;;;;;;5.50;4.27;;;4.40;99.90;;;;;;5067351;28;20946;-64
2021/12/12 08:37:33;;;;;;;5.93;4.60;;;4.50;99.90;;;;;;5067118;28;20448;-63
2021/12/12 08:40:02;;;;;;;5.27;4.10;;;4.50;99.90;;;;;;5067244;28;20450;-65
2021/12/12 08:42:29;;;;;;;4.90;3.47;;;4.60;99.90;;;;;;5067538;28;20446;-64
2021/12/12 08:45:00;;;;;;;7.30;4.50;;;4.50;99.90;;;;;;5067195;28;20494;-66
2021/12/12 08:47:28;;;;;;;6.00;4.10;;;4.50;99.90;;;;;;5067490;28;20821;-65
2021/12/12 08:49:56;;;;;;;5.00;4.10;;;4.50;99.90;;;;;;5067298;28;20446;-66
2021/12/12 08:52:29;;;;;;;5.20;3.90;;;4.40;99.90;;;;;;5067530;28;20450;-65
2021/12/12 08:54:58;;;;;;;5.70;4.33;;;4.40;99.90;;;;;;5066689;28;20449;-65
2021/12/12 08:57:34;;;;;;;4.73;3.47;;;4.40;99.90;;;;;;5066485;28;20926;-65
2021/12/12 09:00:07;;;;;;;4.83;3.90;;;4.40;99.90;;;;;;5067407;28;20599;-66
2021/12/12 09:02:34;;;;;;;5.40;3.97;;;4.40;99.90;;;;;;5067644;28;20447;-64
2021/12/12 09:05:06;;;;;;;4.60;3.87;;;4.50;99.90;;;;;;5067595;28;21075;-66
2021/12/12 09:07:36;;;;;;;5.67;4.87;;;4.60;99.90;;;;;;5067201;28;20453;-63
2021/12/12 09:10:07;;;;;;;6.07;3.80;;;4.60;99.90;;;;;;5067379;28;20544;-65
2021/12/12 09:12:38;;;;;;;6.03;4.40;;;4.70;99.90;;;;;;5067469;28;20448;-62
2021/12/12 09:15:13;;;;;;;4.63;3.90;;;4.80;99.90;;;;;;5067707;28;20454;-69
2021/12/12 09:17:43;;;;;;;5.10;3.33;;;4.80;99.90;;;;;;5067091;28;20451;-66
2021/12/12 09:20:18;;;;;;;5.87;3.80;;;4.90;99.90;;;;;;5067247;28;20944;-63
2021/12/12 09:22:56;;;;;;;5.70;5.07;;;4.80;99.90;;;;;;5070860;28;20462;-64
2021/12/12 09:25:35;;;;;;;4.67;3.97;;;4.80;99.90;;;;;;5071242;28;20486;-63
2021/12/12 09:28:08;;;;;;;6.27;3.70;;;4.80;99.90;;;;;;5070774;28;20450;-64
2021/12/12 09:30:37;;;;;;;4.20;3.53;;;4.80;99.90;;;;;;5071170;28;20469;-64
2021/12/12 09:33:12;;;;;;;5.03;3.67;;;4.80;99.90;;;;;;5071022;28;20450;-63
2021/12/12 09:35:47;;;;;;;4.40;3.23;;;4.80;99.90;;;;;;5071029;28;20449;-63
2021/12/12 09:38:20;;;;;;;5.40;3.37;;;4.80;99.90;;;;;;5070718;28;20530;-64
2021/12/12 09:41:04;;;;;;;4.07;2.43;;;4.80;99.90;;;;;;5071037;28;20472;-63
2021/12/12 09:43:51;;;;;;;3.97;3.10;;;4.90;99.90;;;;;;5070869;28;20451;-65
2021/12/12 09:46:40;;;;;;;4.80;3.10;;;5.00;99.90;;;;;;5070465;28;20479;-64
2021/12/12 09:52:41;;;;;;;4.73;3.77;;;5.20;99.90;;;;;;5068169;28;20501;-64
2021/12/12 09:55:11;;;;;;;4.63;3.60;;;5.40;99.90;;;;;;5060672;28;20535;-65
2021/12/12 09:57:44;;;;;;;4.70;3.10;;;5.60;99.90;;;;;;5050104;28;20454;-65
2021/12/12 10:00:18;;;;;;;5.07;3.73;;;5.90;99.90;;;;;;5057815;28;20957;-65
2021/12/12 10:03:14;;;;;;;4.73;3.30;;;6.10;99.90;;;;;;5059190;28;20549;-65
2021/12/12 10:05:53;;;;;;;5.23;3.57;;;6.30;99.90;;;;;;5052057;28;20566;-64
2021/12/12 10:08:29;;;;;;;6.90;3.60;;;6.30;99.90;;;;;;5056648;28;20444;-63
2021/12/12 10:11:01;;;;;;;4.60;3.37;;;6.20;99.90;;;;;;5056468;28;20463;-64
2021/12/12 10:13:33;;;;;;;4.90;3.37;;;6.20;99.90;;;;;;5060089;28;20493;-65
2021/12/12 10:16:06;;;;;;;4.33;3.30;;;6.20;99.90;;;;;;5058934;28;20443;-65
2021/12/12 10:18:44;;;;;;;4.43;3.07;;;6.30;99.90;;;;;;5068166;28;20531;-64
2021/12/12 10:21:14;;;;;;;4.30;3.07;;;6.30;99.90;;;;;;5069455;28;20509;-67
2021/12/12 10:23:56;;;;;;;4.20;3.30;;;6.40;99.90;;;;;;5069797;28;21048;-66
2021/12/12 10:26:28;;;;;;;4.00;3.07;;;6.40;99.90;;;;;;5066161;28;20592;-64
2021/12/12 10:29:02;;;;;;;6.40;3.67;;;6.40;99.90;;;;;;5067775;28;20454;-68
2021/12/12 10:31:33;;;;;;;5.20;3.27;;;6.50;99.90;;;;;;5068430;28;20469;-64
2021/12/12 10:34:04;;;;;;;5.93;3.80;;;6.50;99.90;;;;;;5060317;28;20531;-65
2021/12/12 10:36:37;;;;;;;5.60;2.83;;;6.60;99.90;;;;;;5058818;28;20459;-65
2021/12/12 10:39:09;;;;;;;5.20;3.30;;;6.60;99.90;;;;;;5061050;28;20450;-65
2021/12/12 10:41:40;;;;;;;3.40;2.60;;;6.70;99.90;;;;;;5066497;28;21013;-65
2021/12/12 10:44:13;;;;;;;4.43;2.40;;;6.80;99.90;;;;;;5064122;28;20978;-62
2021/12/12 10:46:56;;;;;;;4.40;2.90;;;6.90;99.90;;;;;;5062482;28;20486;-65
2021/12/12 10:49:32;;;;;;;4.60;3.13;;;7.00;99.90;;;;;;5067476;28;20443;-65
2021/12/12 10:52:05;;;;;;;3.50;2.63;;;7.00;99.90;;;;;;5067161;28;20563;-66
2021/12/12 10:54:40;;;;;;;5.73;3.47;;;7.10;99.90;;;;;;5056195;28;20448;-67
2021/12/12 10:57:11;;;;;;;5.63;2.77;;;7.30;99.90;;;;;;5058293;28;20534;-65
2021/12/12 10:59:46;;;;;;;3.90;2.80;;;7.40;99.90;;;;;;5066801;28;20453;-66
2021/12/12 11:02:17;;;;;;;4.10;2.77;;;7.50;99.90;;;;;;5067411;28;20503;-65
2021/12/12 11:04:49;;;;;;;3.80;2.50;;;7.40;99.90;;;;;;5067738;28;20451;-66
2021/12/12 11:07:22;;;;;;;4.37;2.70;;;7.50;99.90;;;;;;5067221;28;20483;-69
2021/12/12 11:10:00;;;;;;;4.33;2.63;;;7.50;99.90;;;;;;5066978;28;20448;-65
2021/12/12 11:12:34;;;;;;;6.03;3.20;;;7.50;99.90;;;;;;5062292;28;20443;-65
2021/12/12 11:15:07;;;;;;;3.63;2.70;;;7.60;99.90;;;;;;5066548;28;20447;-65
2021/12/12 11:17:38;;;;;;;4.97;2.73;;;7.60;99.90;;;;;;5055155;28;20436;-66
2021/12/12 11:20:11;;;;;;;4.70;3.00;;;7.60;99.90;;;;;;5065302;28;20457;-66
2021/12/12 11:22:45;;;;;;;5.17;2.90;;;7.60;99.90;;;;;;5064820;28;20474;-64
2021/12/12 11:25:18;;;;;;;3.80;2.40;;;7.60;99.90;;;;;;5066192;28;20452;-65
2021/12/12 11:27:48;;;;;;;4.40;2.60;;;7.60;99.90;;;;;;5066835;28;20436;-69
2021/12/12 11:30:21;;;;;;;3.53;2.67;;;7.60;99.90;;;;;;5068558;28;20439;-68
2021/12/12 11:32:49;;;;;;;6.50;2.80;;;7.70;99.90;;;;;;5068180;28;20439;-67
2021/12/12 11:35:21;;;;;;;6.53;2.73;;;7.70;99.90;;;;;;5068208;28;20443;-67
2021/12/12 11:37:53;;;;;;;5.30;2.73;;;7.70;99.90;;;;;;5067865;28;20438;-67
2021/12/12 11:40:24;;;;;;;3.53;2.60;;;7.70;99.90;;;;;;5060391;28;20466;-68
2021/12/12 11:42:58;;;;;;;4.10;3.13;;;7.70;99.90;;;;;;5065253;28;20447;-67
2021/12/12 11:45:28;;;;;;;3.67;2.50;;;7.70;99.90;;;;;;5065897;28;22039;-67
2021/12/12 11:48:15;;;;;;;3.77;2.60;;;7.70;99.90;;;;;;5060163;28;20452;-67
2021/12/12 11:50:50;;;;;;;4.47;2.63;;;7.70;99.90;;;;;;5051317;28;20948;-67
2021/12/12 11:53:24;;;;;;;6.73;2.40;;;7.80;99.90;;;;;;5057075;28;20447;-68
2021/12/12 11:55:55;;;;;;;4.93;2.50;;;7.80;99.90;;;;;;5053975;28;20817;-67
2021/12/12 11:58:30;;;;;;;7.13;2.70;;;7.80;99.90;;;;;;5061031;28;20450;-68
2021/12/12 12:01:04;;;;;;;4.23;2.00;;;7.90;99.90;;;;;;5061196;28;20466;-68
2021/12/12 12:03:49;;;;;;;5.50;2.43;;;8.00;99.90;;;;;;5061138;28;20519;-68
2021/12/12 12:06:24;;;;;;;3.47;1.93;;;8.00;99.90;;;;;;5063156;28;20479;-68
2021/12/12 12:09:25;;;;;;;4.70;2.03;;;8.10;99.90;;;;;;5064629;28;20444;-67
2021/12/12 12:12:13;;;;;;;3.07;2.30;;;8.10;99.90;;;;;;5058827;28;20493;-68
2021/12/12 12:14:53;;;;;;;3.00;2.20;;;8.20;99.90;;;;;;5061595;28;20440;-68
2021/12/12 12:17:29;;;;;;;4.67;2.40;;;8.20;99.90;;;;;;5054620;28;20594;-68
2021/12/12 12:20:09;;;;;;;4.10;2.60;;;8.30;99.90;;;;;;5062370;28;20440;-68
2021/12/12 12:22:45;;;;;;;5.77;2.90;;;8.40;99.90;;;;;;5058252;28;21245;-67
2021/12/12 12:25:20;;;;;;;6.90;2.87;;;8.40;99.90;;;;;;5053205;28;20992;-68
2021/12/12 12:27:53;;;;;;;4.67;2.20;;;8.40;99.90;;;;;;5048656;28;20491;-67
2021/12/12 12:30:56;;;;;;;3.60;2.33;;;8.30;99.90;;;;;;5045858;28;20463;-68
2021/12/12 12:33:58;;;;;;;6.43;3.00;;;8.30;99.90;;;;;;5018835;28;21980;-68
2021/12/12 12:37:17;;;;;;;4.50;2.40;;;8.40;99.90;;;;;;5043634;28;20431;-69
2021/12/12 12:40:21;;;;;;;3.13;1.97;;;8.40;99.90;;;;;;5048644;28;20482;-66
2021/12/12 12:43:25;;;;;;;4.20;2.20;;;8.30;99.90;;;;;;5056629;28;20454;-67
2021/12/12 12:46:25;;;;;;;5.33;2.03;;;8.30;99.90;;;;;;5048726;28;20443;-67
2021/12/12 12:49:29;;;;;;;4.23;2.73;;;8.20;99.90;;;;;;5056770;28;20449;-66
2021/12/12 12:52:29;;;;;;;3.80;2.30;;;8.10;99.90;;;;;;5054837;28;20468;-67
2021/12/12 12:55:33;;;;;;;11.27;2.60;;;8.00;99.90;;;;;;5051927;28;21062;-67
2021/12/12 12:58:12;;;;;;;4.70;1.90;;;7.90;99.90;;;;;;5044083;28;20818;-68
2021/12/12 13:00:41;;;;;;;2.60;2.10;;;7.80;99.90;;;;;;5054341;28;20467;-68
2021/12/12 13:03:38;;;;;;;5.83;2.20;;;7.90;99.90;;;;;;5050567;28;20441;-66
2021/12/12 13:06:18;;;;;;;3.10;2.13;;;8.00;99.90;;;;;;5057948;28;20868;-66
2021/12/12 13:09:07;;;;;;;3.60;1.80;;;8.10;99.90;;;;;;5053589;28;20452;-66
2021/12/12 13:11:44;;;;;;;3.60;2.57;;;8.20;99.90;;;;;;5052826;28;20750;-66
2021/12/12 13:14:22;;;;;;;5.30;2.57;;;8.30;99.90;;;;;;5050823;28;20440;-67
2021/12/12 13:16:55;;;;;;;5.83;2.73;;;8.30;99.90;;;;;;5053674;28;20451;-66
2021/12/12 13:19:31;;;;;;;4.10;1.80;;;8.40;99.90;;;;;;5054755;28;20828;-67
2021/12/12 13:22:03;;;;;;;3.90;2.37;;;8.30;99.90;;;;;;5055049;28;20473;-66
2021/12/12 13:24:41;;;;;;;3.47;2.50;;;8.10;99.90;;;;;;5049454;28;20448;-66
2021/12/12 13:27:20;;;;;;;3.07;2.40;;;8.00;99.90;;;;;;5050787;28;20486;-66
2021/12/12 13:30:04;;;;;;;4.00;2.23;;;7.90;99.90;;;;;;5046900;28;20449;-66
2021/12/12 13:32:46;;;;;;;3.37;2.03;;;7.90;99.90;;;;;;5063868;28;20444;-66
2021/12/12 13:35:19;;;;;;;3.93;1.90;;;7.80;99.90;;;;;;5066963;28;20471;-63
2021/12/12 13:38:00;;;;;;;6.83;2.17;;;7.80;99.90;;;;;;5067002;28;20438;-63
2021/12/12 13:40:36;;;;;;;5.00;2.70;;;7.80;99.90;;;;;;5066098;28;20467;-66